Time;durP1;ratioP1;P1;durP2;ratioP2;P2;SDS_P1;SDS_P2;PMS_P1;PMS_P2;Temp;Humidity;BMP_temperature;BMP_pressure;BME280_temperature;BME280_humidity;BME280_pressure;Samples;Min_cycle;Max_cycle;Signal;HPM_P1;HPM_P2
2022/09/05 04:01:43;;;;;;;17.30;15.37;;;13.40;96.30;;;;;;5414247;23;20754;-75
2022/09/05 04:04:22;;;;;;;13.07;11.37;;;13.40;96.30;;;;;;5016030;28;20891;-78
2022/09/05 04:06:58;;;;;;;18.63;15.10;;;13.40;96.30;;;;;;5034418;28;20415;-76
2022/09/05 04:09:44;;;;;;;10.47;8.90;;;13.30;96.30;;;;;;5033491;28;20890;-76
2022/09/05 04:12:21;;;;;;;16.60;14.97;;;13.10;96.30;;;;;;5016314;28;20445;-75
2022/09/05 04:14:54;;;;;;;11.37;10.37;;;13.20;96.30;;;;;;5018891;28;20415;-76
2022/09/05 04:17:39;;;;;;;14.23;12.80;;;13.20;96.30;;;;;;5034796;28;20403;-76
2022/09/05 04:20:23;;;;;;;13.97;12.50;;;13.20;96.30;;;;;;5000211;28;20477;-76
2022/09/05 04:23:10;;;;;;;28.60;25.70;;;13.10;96.30;;;;;;5018704;28;20458;-78
2022/09/05 04:25:52;;;;;;;14.47;12.97;;;13.20;96.30;;;;;;5034233;28;20478;-75
2022/09/05 04:28:34;;;;;;;16.47;14.87;;;13.20;96.30;;;;;;5033385;28;20414;-76
2022/09/05 05:27:09;;;;;;;8.93;8.03;;;15.80;96.30;;;;;;5007280;28;20795;-77
2022/09/05 05:29:59;;;;;;;7.90;7.20;;;17.00;96.30;;;;;;5000019;28;20435;-78
2022/09/05 05:32:45;;;;;;;7.73;7.03;;;18.00;96.30;;;;;;4992095;28;20857;-77
2022/09/05 05:35:17;;;;;;;9.77;7.30;;;18.30;96.30;;;;;;5011343;28;20538;-77
2022/09/05 05:37:49;;;;;;;12.20;7.13;;;19.10;96.30;;;;;;4996166;28;20491;-79
2022/09/05 05:40:14;;;;;;;13.70;7.23;;;19.50;96.30;;;;;;5011405;28;20416;-79
2022/09/05 05:42:41;;;;;;;10.70;7.10;;;20.20;96.30;;;;;;4976894;28;20417;-79
2022/09/05 05:45:28;;;;;;;7.40;6.70;;;21.00;96.30;;;;;;4979920;28;20193;-79
2022/09/05 05:48:02;;;;;;;11.50;6.80;;;21.90;96.30;;;;;;4992986;28;20460;-77
2022/09/05 05:50:43;;;;;;;7.47;6.60;;;21.90;96.30;;;;;;5011546;28;20442;-79
2022/09/05 05:53:22;;;;;;;7.50;6.43;;;21.70;96.30;;;;;;5011191;28;20426;-77
2022/09/05 05:56:10;;;;;;;8.80;6.43;;;22.20;96.30;;;;;;5012139;28;20922;-78
2022/09/05 05:58:51;;;;;;;7.00;5.90;;;23.10;96.30;;;;;;5011748;28;20469;-77
2022/09/05 06:01:35;;;;;;;6.60;6.00;;;24.60;96.30;;;;;;4993640;28;20484;-80
2022/09/05 06:04:26;;;;;;;11.47;6.37;;;24.60;96.30;;;;;;5012198;28;20490;-78
2022/09/05 06:07:03;;;;;;;6.57;5.80;;;25.00;96.30;;;;;;5004951;28;20424;-78
2022/09/05 06:09:48;;;;;;;6.20;5.60;;;25.20;96.30;;;;;;5006949;28;20481;-78
2022/09/05 06:12:47;;;;;;;7.43;6.73;;;24.50;96.30;;;;;;5010171;28;21016;-78
2022/09/05 06:15:36;;;;;;;6.63;6.03;;;24.80;96.30;;;;;;4992625;28;20463;-79
2022/09/05 06:18:23;;;;;;;7.87;6.60;;;25.30;96.30;;;;;;4995898;28;20416;-79
2022/09/05 06:21:20;;;;;;;13.33;6.50;;;25.80;95.60;;;;;;4995272;28;20511;-78
2022/09/05 06:24:07;;;;;;;9.17;6.77;;;25.70;95.60;;;;;;4989443;28;20839;-79
2022/09/05 06:26:59;;;;;;;7.07;6.37;;;25.20;96.30;;;;;;4995803;28;20419;-79
2022/09/05 06:29:46;;;;;;;10.20;6.13;;;26.30;94.00;;;;;;5014054;28;20791;-79
2022/09/05 06:32:23;;;;;;;12.23;6.87;;;26.70;91.80;;;;;;5014452;28;20427;-76
2022/09/05 06:35:19;;;;;;;6.73;6.10;;;26.90;91.70;;;;;;5012067;28;20395;-76
2022/09/05 06:38:09;;;;;;;10.30;6.60;;;26.70;91.90;;;;;;5012016;28;20403;-77
2022/09/05 06:41:00;;;;;;;10.53;6.90;;;26.20;93.30;;;;;;5006844;28;20947;-76
2022/09/05 06:43:59;;;;;;;8.00;6.07;;;26.40;92.70;;;;;;4990382;28;20539;-76
2022/09/05 06:46:34;;;;;;;7.07;6.37;;;25.90;94.90;;;;;;4997644;28;20807;-79
2022/09/05 06:49:21;;;;;;;8.33;6.57;;;25.70;95.60;;;;;;5016278;28;20444;-78
2022/09/05 06:52:16;;;;;;;9.63;6.93;;;24.70;96.30;;;;;;5015577;28;20430;-78
2022/09/05 06:55:03;;;;;;;7.07;6.17;;;23.00;96.30;;;;;;5015483;28;20780;-78
2022/09/05 06:57:55;;;;;;;7.03;6.43;;;23.00;96.30;;;;;;5015560;28;20415;-78
2022/09/05 07:00:45;;;;;;;7.50;6.80;;;23.10;96.30;;;;;;5015192;28;20880;-78
2022/09/05 07:03:17;;;;;;;7.80;7.10;;;23.70;96.30;;;;;;5016758;28;20455;-78
2022/09/05 07:05:59;;;;;;;7.73;6.87;;;23.30;96.30;;;;;;4999469;28;20417;-79
2022/09/05 07:08:44;;;;;;;7.00;6.30;;;24.40;96.30;;;;;;5017097;28;20894;-78
2022/09/05 07:11:16;;;;;;;7.67;6.67;;;24.20;96.30;;;;;;5016734;28;20558;-79
2022/09/05 07:14:03;;;;;;;9.07;7.10;;;23.90;96.30;;;;;;4999345;28;20763;-79
2022/09/05 07:16:49;;;;;;;8.20;6.97;;;23.30;96.30;;;;;;5016852;28;20930;-78
2022/09/05 07:19:36;;;;;;;7.90;6.63;;;23.60;96.30;;;;;;4999066;28;20418;-78
2022/09/05 07:22:31;;;;;;;7.17;6.47;;;24.90;96.30;;;;;;5017560;28;20434;-78
2022/09/05 07:25:00;;;;;;;7.17;5.90;;;25.60;96.30;;;;;;5016878;28;20438;-79
2022/09/05 07:27:49;;;;;;;6.20;5.63;;;26.30;95.20;;;;;;5017709;28;20403;-79
2022/09/05 07:30:17;;;;;;;5.63;5.13;;;26.90;95.20;;;;;;5018046;28;20443;-79
2022/09/05 07:32:46;;;;;;;10.93;4.90;;;27.30;92.20;;;;;;5000574;28;20408;-78
2022/09/05 07:35:22;;;;;;;6.93;6.13;;;27.20;92.80;;;;;;5018913;28;20407;-80
2022/09/05 07:38:03;;;;;;;10.90;6.13;;;27.50;90.40;;;;;;5017941;28;20454;-79
2022/09/05 07:40:34;;;;;;;6.07;5.43;;;27.50;91.10;;;;;;4996281;28;20775;-79
2022/09/05 07:43:04;;;;;;;6.47;5.87;;;27.20;91.60;;;;;;4983466;28;20518;-79
2022/09/05 07:45:34;;;;;;;6.20;5.60;;;26.90;93.20;;;;;;4983780;28;20464;-79
2022/09/05 07:48:12;;;;;;;6.60;6.03;;;26.80;91.90;;;;;;4999382;28;20455;-79
2022/09/05 07:50:55;;;;;;;6.23;5.73;;;26.80;93.20;;;;;;4996553;28;20432;-79
2022/09/05 07:53:22;;;;;;;10.80;6.80;;;26.90;92.90;;;;;;4996827;28;20797;-79
2022/09/05 07:55:52;;;;;;;7.10;6.40;;;26.20;95.10;;;;;;4995903;28;20416;-79
2022/09/05 07:58:20;;;;;;;7.90;6.70;;;27.10;93.80;;;;;;4978711;28;20420;-79
2022/09/05 08:00:51;;;;;;;6.20;5.60;;;27.40;93.30;;;;;;4996355;28;20440;-79
2022/09/05 08:03:24;;;;;;;11.03;6.57;;;27.50;92.70;;;;;;4995808;28;20451;-79
2022/09/05 08:05:53;;;;;;;8.63;6.23;;;27.70;91.90;;;;;;4997030;28;20443;-79
2022/09/05 08:08:22;;;;;;;6.43;5.73;;;27.60;91.40;;;;;;4978754;28;20455;-79
2022/09/05 08:10:49;;;;;;;6.63;5.90;;;27.60;91.20;;;;;;4992467;28;20801;-78
2022/09/05 08:13:19;;;;;;;10.53;6.60;;;26.60;94.60;;;;;;5015686;28;20770;-79
2022/09/05 08:15:49;;;;;;;7.70;5.70;;;27.00;94.80;;;;;;5016032;28;20415;-79
2022/09/05 08:18:35;;;;;;;6.90;5.57;;;27.80;91.20;;;;;;5015572;28;20455;-78
2022/09/05 08:21:27;;;;;;;7.53;5.60;;;27.70;92.10;;;;;;5015347;28;20426;-79
2022/09/05 08:24:08;;;;;;;5.87;5.37;;;27.60;91.60;;;;;;5014864;28;20985;-79
2022/09/05 08:26:39;;;;;;;6.73;6.03;;;26.90;94.50;;;;;;4997874;28;20482;-79
2022/09/05 08:29:09;;;;;;;6.97;6.27;;;26.60;94.40;;;;;;5014287;28;20411;-79
2022/09/05 08:31:51;;;;;;;6.23;5.50;;;26.30;96.30;;;;;;5015288;28;20835;-79
2022/09/05 08:34:43;;;;;;;6.30;5.70;;;26.70;95.50;;;;;;4998021;28;20833;-78
2022/09/05 08:37:12;;;;;;;6.43;5.93;;;26.80;94.90;;;;;;4998053;28;20469;-79
2022/09/05 08:39:40;;;;;;;6.23;5.70;;;26.60;94.90;;;;;;4997745;28;20461;-79
2022/09/05 08:42:27;;;;;;;6.50;5.60;;;27.10;94.40;;;;;;4980524;28;20464;-79
2022/09/05 08:45:13;;;;;;;7.27;5.30;;;28.40;91.70;;;;;;4991115;28;20470;-79
2022/09/05 08:47:53;;;;;;;5.93;5.43;;;29.40;87.70;;;;;;4996019;28;20437;-79
2022/09/05 08:50:28;;;;;;;6.80;5.50;;;29.00;88.40;;;;;;4995989;28;20414;-80
2022/09/05 08:52:57;;;;;;;7.13;5.57;;;29.10;87.80;;;;;;4978224;28;20416;-80
2022/09/05 08:55:42;;;;;;;9.43;6.03;;;28.80;89.40;;;;;;4994918;28;20772;-79
2022/09/05 08:58:26;;;;;;;6.27;5.67;;;28.90;88.60;;;;;;4994639;28;20415;-78
2022/09/05 09:01:18;;;;;;;5.70;5.10;;;28.80;88.60;;;;;;4995578;28;20431;-79
2022/09/05 09:04:07;;;;;;;4.70;4.07;;;29.00;90.20;;;;;;5000111;28;20474;-79
2022/09/05 09:07:03;;;;;;;4.17;3.30;;;29.20;88.40;;;;;;4998371;28;20955;-79
2022/09/05 09:09:37;;;;;;;4.80;4.40;;;30.20;83.30;;;;;;5007718;28;20419;-79
2022/09/05 09:12:14;;;;;;;5.43;4.27;;;30.40;82.80;;;;;;4996291;28;20842;-79
2022/09/05 09:14:43;;;;;;;4.13;3.40;;;30.70;81.90;;;;;;4996112;28;20404;-78
2022/09/05 09:17:28;;;;;;;9.03;3.70;;;30.90;80.50;;;;;;4993301;28;20408;-75
2022/09/05 09:20:22;;;;;;;4.40;4.00;;;30.80;81.80;;;;;;4993314;28;20403;-75
2022/09/05 09:23:02;;;;;;;3.73;3.43;;;30.50;83.00;;;;;;4993295;28;20487;-79
2022/09/05 09:25:36;;;;;;;3.60;3.30;;;29.50;85.60;;;;;;4993245;28;20450;-79
2022/09/05 09:28:19;;;;;;;3.43;3.00;;;29.90;82.20;;;;;;4993151;28;20400;-76
2022/09/05 09:31:03;;;;;;;2.57;1.90;;;29.30;82.80;;;;;;4993208;28;20470;-76
2022/09/05 09:33:40;;;;;;;2.80;2.60;;;28.50;81.50;;;;;;4993315;28;20463;-76
2022/09/05 09:36:23;;;;;;;4.23;2.77;;;27.50;85.30;;;;;;4993216;28;20440;-75
2022/09/05 09:38:57;;;;;;;4.00;3.63;;;26.60;89.90;;;;;;4987304;28;20496;-78
2022/09/05 09:41:52;;;;;;;4.27;2.60;;;26.10;91.90;;;;;;4975529;28;20459;-76
2022/09/05 09:44:51;;;;;;;3.77;3.37;;;25.30;92.10;;;;;;4992957;28;20848;-75
2022/09/05 09:47:28;;;;;;;4.73;2.80;;;24.60;94.60;;;;;;4992881;28;20419;-75
2022/09/05 09:50:09;;;;;;;5.70;3.13;;;24.40;95.60;;;;;;4975596;28;20928;-77
2022/09/05 09:53:14;;;;;;;2.80;2.47;;;24.30;96.00;;;;;;5004729;28;20411;-78
2022/09/05 09:56:04;;;;;;;3.60;2.53;;;24.20;96.30;;;;;;4981580;28;20415;-77
2022/09/05 09:58:51;;;;;;;5.20;3.03;;;24.20;96.30;;;;;;5011230;28;20457;-77
2022/09/05 10:01:33;;;;;;;7.33;3.33;;;24.10;96.30;;;;;;5011702;28;20470;-77
2022/09/05 10:04:32;;;;;;;3.27;2.97;;;24.00;96.30;;;;;;5011545;28;21171;-77
2022/09/05 10:07:23;;;;;;;10.17;2.80;;;23.80;96.30;;;;;;5012284;28;20495;-77
2022/09/05 10:10:26;;;;;;;3.47;3.17;;;23.80;96.30;;;;;;5001594;28;20420;-77
2022/09/05 10:13:00;;;;;;;4.87;3.10;;;23.90;96.30;;;;;;4993207;28;20627;-77
2022/09/05 10:15:26;;;;;;;4.03;3.63;;;23.70;96.30;;;;;;4993135;28;20413;-77
2022/09/05 10:18:17;;;;;;;6.63;3.43;;;23.80;96.30;;;;;;4992910;28;20913;-77
2022/09/05 11:54:54;;;;;;;5.60;4.40;;;23.90;96.30;;;;;;5522961;23;20475;-78
2022/09/05 11:57:46;;;;;;;7.83;5.10;;;23.70;96.30;;;;;;5016509;28;21001;-79
2022/09/05 12:00:46;;;;;;;9.83;4.77;;;23.90;96.30;;;;;;5032227;28;20411;-79
2022/09/05 12:03:44;;;;;;;10.77;4.90;;;24.00;96.30;;;;;;5033533;28;20497;-79
2022/09/05 12:06:55;;;;;;;5.10;4.60;;;23.90;96.30;;;;;;5009790;28;20439;-78
2022/09/05 12:09:44;;;;;;;5.93;4.80;;;23.80;96.30;;;;;;5032035;28;20438;-79
2022/09/05 12:12:25;;;;;;;5.70;5.20;;;23.90;96.30;;;;;;5045572;28;20788;-79
2022/09/05 12:15:10;;;;;;;5.30;4.80;;;23.90;96.30;;;;;;5035345;28;20918;-79
2022/09/05 12:17:52;;;;;;;10.83;5.27;;;23.90;96.30;;;;;;5027867;28;20486;-79
2022/09/05 12:20:38;;;;;;;6.60;4.30;;;23.90;96.30;;;;;;5027313;28;20432;-79
2022/09/05 12:23:24;;;;;;;5.40;4.83;;;23.80;96.30;;;;;;5023732;28;20499;-79
2022/09/05 12:26:22;;;;;;;6.33;5.10;;;23.80;96.30;;;;;;5033313;28;20414;-79
2022/09/05 12:28:57;;;;;;;10.50;5.70;;;23.90;96.30;;;;;;4963352;28;20434;-78
2022/09/05 12:31:41;;;;;;;5.53;5.03;;;23.90;96.30;;;;;;5032717;28;20441;-78
2022/09/05 12:34:12;;;;;;;6.63;4.93;;;24.10;96.30;;;;;;5033115;28;20411;-79
2022/09/05 12:36:42;;;;;;;7.30;5.40;;;24.30;96.30;;;;;;5032421;28;20549;-78
2022/09/05 12:39:30;;;;;;;11.70;5.47;;;25.00;96.30;;;;;;5009439;28;20430;-78
2022/09/05 12:42:17;;;;;;;10.40;5.53;;;25.10;96.30;;;;;;5024715;28;20446;-79
2022/09/05 12:45:09;;;;;;;5.60;4.83;;;25.30;94.90;;;;;;5032885;28;20466;-79
2022/09/05 12:47:51;;;;;;;7.00;5.83;;;25.40;93.60;;;;;;5032043;28;20521;-77
2022/09/05 12:50:18;;;;;;;5.67;5.10;;;25.20;94.80;;;;;;5014695;28;20441;-78
2022/09/05 12:52:49;;;;;;;6.67;4.60;;;25.20;94.50;;;;;;5014863;28;20506;-78
2022/09/05 12:55:31;;;;;;;10.93;5.40;;;25.00;93.80;;;;;;5032800;28;20418;-79
2022/09/05 12:58:00;;;;;;;6.10;4.67;;;24.50;96.30;;;;;;5032190;28;21005;-79
2022/09/05 13:00:26;;;;;;;5.27;4.63;;;24.50;96.30;;;;;;5014756;28;20449;-78
2022/09/05 13:02:58;;;;;;;5.43;4.93;;;24.30;96.30;;;;;;5014932;28;20502;-78
2022/09/05 13:05:51;;;;;;;6.20;4.77;;;24.40;96.30;;;;;;5009736;28;20183;-78
2022/09/05 13:08:20;;;;;;;6.10;5.00;;;24.30;96.30;;;;;;5003354;28;20646;-78
2022/09/05 13:10:54;;;;;;;9.03;4.37;;;24.10;96.30;;;;;;5003169;28;20457;-78
2022/09/05 13:13:32;;;;;;;6.10;4.57;;;24.20;96.30;;;;;;5027855;28;20426;-79
2022/09/05 13:16:02;;;;;;;5.67;4.17;;;24.50;96.30;;;;;;5033452;28;20754;-79
2022/09/05 13:18:42;;;;;;;6.43;5.30;;;24.60;96.30;;;;;;5033213;28;20430;-78
2022/09/05 13:21:25;;;;;;;8.90;6.13;;;24.20;96.30;;;;;;5042091;28;20978;-78
2022/09/05 13:24:03;;;;;;;7.90;7.10;;;23.80;96.30;;;;;;5032738;28;20991;-79
2022/09/05 13:26:42;;;;;;;7.43;6.10;;;23.70;96.30;;;;;;5032003;28;20470;-78
2022/09/05 13:29:16;;;;;;;7.73;6.93;;;23.60;96.30;;;;;;5013968;28;20803;-79
2022/09/05 13:31:42;;;;;;;7.33;6.20;;;23.40;96.30;;;;;;5014416;28;20446;-79
2022/09/05 13:34:30;;;;;;;6.33;5.50;;;23.40;96.30;;;;;;5025738;28;20484;-79
2022/09/05 13:37:27;;;;;;;7.03;5.80;;;23.30;96.30;;;;;;5031718;28;20191;-79
2022/09/05 13:40:01;;;;;;;6.60;5.80;;;23.20;96.30;;;;;;5027119;28;20431;-78
2022/09/05 13:42:31;;;;;;;11.20;6.77;;;23.20;96.30;;;;;;5011943;28;20476;-78
2022/09/05 13:44:59;;;;;;;11.87;6.90;;;23.10;96.30;;;;;;4982485;28;20893;-77
2022/09/05 13:48:00;;;;;;;8.83;6.60;;;23.00;96.30;;;;;;4998330;28;20426;-78
2022/09/05 13:50:35;;;;;;;7.43;6.60;;;23.00;96.30;;;;;;5002900;28;20489;-78
2022/09/05 13:53:25;;;;;;;13.40;7.50;;;23.00;96.30;;;;;;5013596;28;20426;-78
2022/09/05 13:55:57;;;;;;;7.40;6.10;;;23.10;96.30;;;;;;5026210;28;20787;-78
2022/09/05 13:58:43;;;;;;;8.93;7.27;;;23.00;96.30;;;;;;5031177;28;20805;-79
2022/09/05 14:01:58;;;;;;;7.67;6.87;;;22.80;96.30;;;;;;5031609;28;20446;-79
2022/09/05 14:05:02;;;;;;;9.50;6.93;;;22.70;96.30;;;;;;5028843;28;20546;-77
2022/09/05 14:07:43;;;;;;;11.27;7.30;;;22.70;96.30;;;;;;5030586;28;20433;-79
2022/09/05 14:10:18;;;;;;;8.13;7.10;;;22.70;96.30;;;;;;5000207;28;20888;-78
2022/09/05 14:13:00;;;;;;;7.30;6.60;;;22.70;96.30;;;;;;5016987;28;20426;-79
2022/09/05 14:15:38;;;;;;;7.93;5.80;;;22.50;96.30;;;;;;5032020;28;20426;-78
2022/09/05 14:18:22;;;;;;;8.40;6.97;;;22.50;96.30;;;;;;5031347;28;20505;-79
2022/09/05 14:21:14;;;;;;;9.10;6.00;;;22.40;96.30;;;;;;5014779;28;20446;-78
2022/09/05 14:24:00;;;;;;;6.93;6.00;;;22.30;96.30;;;;;;5051873;28;20462;-79
2022/09/05 14:26:40;;;;;;;6.60;5.70;;;22.30;96.30;;;;;;5045302;28;20461;-76
2022/09/05 14:29:18;;;;;;;6.13;5.53;;;22.20;96.30;;;;;;5029421;28;20472;-79
2022/09/05 14:32:12;;;;;;;6.67;5.97;;;22.20;96.30;;;;;;5031322;28;20461;-79
2022/09/05 14:34:37;;;;;;;5.90;5.40;;;22.10;96.30;;;;;;5030999;28;20419;-79
2022/09/05 14:37:39;;;;;;;5.93;5.40;;;22.20;96.30;;;;;;5030888;28;20427;-78
2022/09/05 14:40:34;;;;;;;6.90;6.03;;;22.10;96.30;;;;;;5020463;28;20176;-77
2022/09/05 14:43:21;;;;;;;8.00;6.07;;;22.00;96.30;;;;;;5013516;28;20415;-78
2022/09/05 14:45:58;;;;;;;8.77;6.10;;;21.80;96.30;;;;;;4988685;28;20518;-81
2022/09/05 14:48:30;;;;;;;8.30;5.30;;;21.80;96.30;;;;;;4984480;28;20431;-82
2022/09/05 14:51:33;;;;;;;10.33;5.20;;;21.80;96.30;;;;;;5005499;28;20451;-82
2022/09/05 14:54:20;;;;;;;6.83;5.10;;;21.70;96.30;;;;;;4983240;28;20463;-79
2022/09/05 14:56:58;;;;;;;12.57;6.43;;;21.60;96.30;;;;;;5004613;28;20878;-80
2022/09/05 14:59:57;;;;;;;19.23;6.40;;;21.40;96.30;;;;;;5013951;28;20977;-82
2022/09/05 15:02:40;;;;;;;12.67;7.27;;;21.00;96.30;;;;;;4980853;28;20458;-79
2022/09/05 15:05:12;;;;;;;13.57;7.20;;;20.70;96.30;;;;;;5031405;28;20517;-79
2022/09/05 15:07:46;;;;;;;10.67;7.60;;;20.40;96.30;;;;;;5006951;28;20419;-78
2022/09/05 15:10:15;;;;;;;14.87;7.20;;;20.00;96.30;;;;;;5040134;28;20450;-78
2022/09/05 15:12:54;;;;;;;11.37;7.00;;;19.90;96.30;;;;;;5034819;28;21182;-78
2022/09/05 15:15:27;;;;;;;10.07;6.60;;;19.70;96.30;;;;;;5035102;28;20444;-78
2022/09/05 15:18:00;;;;;;;11.97;7.17;;;19.60;96.30;;;;;;5034441;28;20922;-78
2022/09/05 15:20:34;;;;;;;10.57;7.80;;;19.40;96.30;;;;;;5034239;28;20929;-78
2022/09/05 15:23:01;;;;;;;13.80;5.80;;;19.20;96.30;;;;;;5034833;28;20426;-78
2022/09/05 15:25:28;;;;;;;7.03;6.33;;;18.90;96.30;;;;;;5033465;28;20420;-77
2022/09/05 15:27:54;;;;;;;10.37;6.97;;;18.90;96.30;;;;;;5034863;28;20419;-78
2022/09/05 15:30:29;;;;;;;10.07;7.17;;;18.90;96.30;;;;;;5038309;28;20814;-78
2022/09/05 15:33:21;;;;;;;11.13;7.77;;;18.80;96.30;;;;;;5012253;28;20199;-78
2022/09/05 15:35:46;;;;;;;7.00;5.90;;;18.70;96.30;;;;;;5019269;28;20437;-78
2022/09/05 15:38:22;;;;;;;8.53;5.67;;;18.80;96.30;;;;;;5048309;28;20785;-79
2022/09/05 15:41:06;;;;;;;6.80;5.17;;;18.60;96.30;;;;;;5047448;28;20562;-79
2022/09/05 15:43:33;;;;;;;6.10;5.07;;;18.40;96.30;;;;;;5034461;28;20464;-81
2022/09/05 15:46:02;;;;;;;8.00;5.37;;;18.10;96.30;;;;;;5034832;28;20441;-81
2022/09/05 15:48:30;;;;;;;12.43;6.80;;;17.90;96.30;;;;;;5037077;28;20498;-79
2022/09/05 15:50:57;;;;;;;9.30;7.57;;;17.80;96.30;;;;;;5039056;28;20427;-78
2022/09/05 15:53:27;;;;;;;5.83;5.23;;;17.60;96.30;;;;;;5026638;28;20441;-79
2022/09/05 15:55:55;;;;;;;6.27;4.83;;;17.50;96.30;;;;;;5021308;28;20957;-78
2022/09/05 15:58:20;;;;;;;6.50;5.90;;;17.50;96.30;;;;;;5023657;28;21013;-77
2022/09/05 16:00:51;;;;;;;6.40;5.80;;;17.60;96.30;;;;;;5008978;28;20482;-78
2022/09/05 16:03:19;;;;;;;6.23;5.73;;;17.70;96.30;;;;;;5042391;28;20213;-78
2022/09/05 16:05:57;;;;;;;6.80;6.20;;;17.80;96.30;;;;;;5058643;28;20457;-80
2022/09/05 16:08:27;;;;;;;6.30;5.70;;;17.90;96.30;;;;;;5010059;28;20443;-85
2022/09/05 16:11:30;;;;;;;6.33;5.77;;;17.90;96.30;;;;;;5008993;28;20435;-81
2022/09/05 16:14:19;;;;;;;9.50;7.43;;;17.90;96.30;;;;;;5017767;28;20902;-84
2022/09/05 16:16:50;;;;;;;11.40;7.93;;;17.70;96.30;;;;;;5054010;28;20418;-78
2022/09/05 16:19:28;;;;;;;6.20;5.57;;;17.80;96.30;;;;;;5056060;28;20425;-79
2022/09/05 16:21:56;;;;;;;6.50;5.90;;;17.80;96.30;;;;;;5024224;28;20446;-79
2022/09/05 16:24:29;;;;;;;6.40;5.53;;;17.90;96.30;;;;;;5011899;28;20542;-79
2022/09/05 16:26:58;;;;;;;5.97;5.37;;;17.90;96.30;;;;;;5031357;28;20417;-79
2022/09/05 16:29:27;;;;;;;6.60;5.80;;;17.90;96.30;;;;;;5034221;28;20835;-79
2022/09/05 16:31:58;;;;;;;6.30;5.80;;;18.00;96.30;;;;;;5034654;28;20446;-78
2022/09/05 16:34:54;;;;;;;5.70;5.10;;;18.00;96.30;;;;;;5019507;28;20507;-79
2022/09/05 16:37:25;;;;;;;6.33;5.07;;;18.10;96.30;;;;;;4995585;28;20421;-79
2022/09/05 16:40:04;;;;;;;6.33;5.83;;;18.10;96.30;;;;;;5025320;28;20430;-79
2022/09/05 16:42:37;;;;;;;11.47;6.10;;;18.10;96.30;;;;;;4996333;28;20506;-79
2022/09/05 16:45:36;;;;;;;7.40;5.00;;;18.10;96.30;;;;;;5028041;28;20496;-79
2022/09/05 16:48:13;;;;;;;5.60;5.10;;;18.20;96.30;;;;;;5025937;28;20475;-78
2022/09/05 16:50:56;;;;;;;25.13;22.70;;;18.10;96.30;;;;;;5052751;28;20434;-78
2022/09/05 16:53:28;;;;;;;213.73;191.93;;;18.10;96.30;;;;;;5052834;28;20432;-79
2022/09/05 16:55:57;;;;;;;102.53;92.37;;;18.10;96.30;;;;;;5052833;28;20410;-78
2022/09/05 16:58:29;;;;;;;69.17;61.87;;;18.10;96.30;;;;;;5052962;28;20438;-79
2022/09/05 17:01:23;;;;;;;17.73;16.13;;;18.10;96.30;;;;;;5029880;28;20546;-78
2022/09/05 17:04:22;;;;;;;8.47;7.60;;;18.10;96.30;;;;;;5036364;28;20698;-79
2022/09/05 17:07:15;;;;;;;7.53;6.83;;;18.10;96.30;;;;;;5032509;28;20399;-79
2022/09/05 17:09:43;;;;;;;10.40;8.30;;;18.00;96.30;;;;;;5004525;28;20529;-79
2022/09/05 17:12:15;;;;;;;9.90;8.83;;;18.00;96.30;;;;;;4995608;28;20788;-79
2022/09/05 17:14:45;;;;;;;10.30;7.30;;;18.00;96.30;;;;;;5013109;28;20466;-79
2022/09/05 17:17:25;;;;;;;6.87;6.07;;;17.90;96.30;;;;;;5013169;28;20411;-79
2022/09/05 17:19:52;;;;;;;11.60;6.73;;;17.90;96.30;;;;;;5011948;28;20403;-79
2022/09/05 17:22:36;;;;;;;7.17;6.50;;;17.90;96.30;;;;;;5013002;28;20431;-79
2022/09/05 17:25:17;;;;;;;8.60;7.80;;;17.90;96.30;;;;;;5012675;28;20530;-78
2022/09/05 17:27:48;;;;;;;6.80;6.17;;;17.90;96.30;;;;;;5026344;28;20458;-79
2022/09/05 17:30:36;;;;;;;10.47;9.37;;;17.80;96.30;;;;;;5013761;28;20582;-79
2022/09/05 17:33:20;;;;;;;12.80;11.60;;;17.80;96.30;;;;;;5031878;28;21021;-78
2022/09/05 17:36:13;;;;;;;13.73;9.80;;;17.80;96.30;;;;;;5031842;28;20458;-78
2022/09/05 17:39:06;;;;;;;10.20;9.20;;;17.80;96.30;;;;;;5031623;28;20442;-78
2022/09/05 17:42:01;;;;;;;12.30;10.63;;;17.80;96.30;;;;;;5031877;28;20438;-79
2022/09/05 17:44:49;;;;;;;12.90;10.90;;;17.80;96.30;;;;;;5026445;28;20487;-79
2022/09/05 17:47:33;;;;;;;9.97;8.97;;;17.70;96.30;;;;;;5023013;28;20398;-78
2022/09/05 17:50:13;;;;;;;8.00;7.20;;;17.70;96.30;;;;;;5014565;28;20451;-77
2022/09/05 17:53:05;;;;;;;13.60;7.57;;;17.70;96.30;;;;;;5018902;28;20434;-78
2022/09/05 17:55:36;;;;;;;7.80;7.10;;;17.60;96.30;;;;;;5042288;28;20407;-78
2022/09/05 17:58:24;;;;;;;7.23;6.53;;;17.50;96.30;;;;;;5029961;28;20415;-78
2022/09/05 18:00:50;;;;;;;8.00;7.20;;;17.30;96.30;;;;;;5031494;28;20801;-78
2022/09/05 18:03:34;;;;;;;8.93;7.30;;;17.30;96.30;;;;;;5029582;28;20415;-78
2022/09/05 18:06:03;;;;;;;7.97;7.23;;;17.20;96.30;;;;;;5030497;28;20172;-78
2022/09/05 18:08:43;;;;;;;8.13;7.30;;;17.10;96.30;;;;;;5028822;28;20407;-79
2022/09/05 18:11:30;;;;;;;11.17;8.10;;;17.00;96.30;;;;;;5029471;28;20521;-78
2022/09/05 18:14:01;;;;;;;9.27;8.33;;;17.00;96.30;;;;;;5014039;28;20490;-79
2022/09/05 18:16:34;;;;;;;21.40;19.33;;;17.00;96.30;;;;;;5031721;28;20402;-79
2022/09/05 18:19:32;;;;;;;9.20;8.27;;;16.90;96.30;;;;;;5012978;28;20419;-78
2022/09/05 18:22:20;;;;;;;10.40;9.30;;;16.90;96.30;;;;;;5013030;28;20566;-78
2022/09/05 18:24:58;;;;;;;12.67;10.47;;;16.80;96.30;;;;;;5031315;28;21086;-78
2022/09/05 18:27:34;;;;;;;11.60;10.60;;;16.80;96.30;;;;;;5031593;28;20429;-78
2022/09/05 18:30:08;;;;;;;24.17;21.57;;;16.70;96.30;;;;;;5030694;28;20391;-78
2022/09/05 18:32:58;;;;;;;9.83;8.93;;;16.60;96.30;;;;;;5030994;28;20435;-77
2022/09/05 18:35:37;;;;;;;8.40;7.70;;;16.60;96.30;;;;;;5013039;28;20473;-75
2022/09/05 18:38:03;;;;;;;9.77;8.80;;;16.50;96.30;;;;;;5013688;28;20419;-76
2022/09/05 18:40:45;;;;;;;9.90;7.93;;;16.50;96.30;;;;;;5014501;28;20423;-76
2022/09/05 18:43:33;;;;;;;9.17;8.37;;;16.40;96.30;;;;;;5035950;28;20631;-75
2022/09/05 18:46:11;;;;;;;16.50;9.40;;;16.30;96.30;;;;;;5035574;28;20404;-78
2022/09/05 18:49:10;;;;;;;9.77;8.60;;;16.20;96.30;;;;;;5033791;28;20410;-78
2022/09/05 18:51:50;;;;;;;16.57;7.63;;;16.20;96.30;;;;;;4991457;28;20458;-78
2022/09/05 18:54:18;;;;;;;9.17;8.37;;;16.30;96.30;;;;;;5034069;28;20457;-77
2022/09/05 18:56:48;;;;;;;9.07;8.17;;;16.30;96.30;;;;;;5016745;28;20418;-77
2022/09/05 18:59:17;;;;;;;8.73;7.83;;;16.20;96.30;;;;;;4997638;28;20426;-77
2022/09/05 19:01:53;;;;;;;9.20;8.20;;;16.20;96.30;;;;;;5015620;28;20443;-78
2022/09/05 19:04:45;;;;;;;9.17;8.07;;;16.10;96.30;;;;;;5015384;28;20513;-77
2022/09/05 19:07:20;;;;;;;9.37;8.47;;;16.00;96.30;;;;;;4997990;28;20420;-77
2022/09/05 19:10:06;;;;;;;9.93;8.93;;;15.80;96.30;;;;;;5025123;28;20938;-77
2022/09/05 19:12:35;;;;;;;11.00;8.97;;;15.80;96.30;;;;;;5017363;28;20446;-78
2022/09/05 19:15:06;;;;;;;10.13;8.80;;;15.70;96.30;;;;;;5035070;28;20505;-78
2022/09/05 19:17:43;;;;;;;11.43;10.37;;;15.90;96.30;;;;;;5034947;28;20415;-78
2022/09/05 19:20:09;;;;;;;10.87;9.57;;;16.00;96.30;;;;;;5034649;28;20419;-77
2022/09/05 19:22:41;;;;;;;10.90;9.40;;;16.00;96.30;;;;;;5034961;28;20438;-78
2022/09/05 19:25:15;;;;;;;9.80;8.80;;;15.90;96.30;;;;;;5033935;28;20585;-77
2022/09/05 19:27:50;;;;;;;9.30;8.50;;;15.80;96.30;;;;;;5015208;28;20431;-76
2022/09/05 19:30:37;;;;;;;13.43;9.97;;;15.90;96.30;;;;;;5023349;28;20946;-76
2022/09/05 19:33:03;;;;;;;10.83;9.93;;;16.00;96.30;;;;;;5034790;28;20906;-76
2022/09/05 19:35:36;;;;;;;10.17;8.40;;;16.00;96.30;;;;;;5034399;28;20423;-77
2022/09/05 19:38:09;;;;;;;10.20;9.40;;;16.10;96.30;;;;;;5016608;28;20898;-76
2022/09/05 19:40:43;;;;;;;9.53;8.63;;;16.00;96.30;;;;;;5029529;28;20463;-76
2022/09/05 19:43:14;;;;;;;12.57;8.83;;;16.10;96.30;;;;;;5014720;28;20401;-75
2022/09/05 19:45:40;;;;;;;12.27;9.97;;;16.20;96.30;;;;;;5014922;28;20503;-76
2022/09/05 19:48:28;;;;;;;10.13;9.27;;;16.20;96.30;;;;;;4997005;28;20454;-76
2022/09/05 19:51:07;;;;;;;11.50;9.70;;;16.30;96.30;;;;;;5014675;28;20268;-76
2022/09/05 19:53:43;;;;;;;12.00;9.53;;;16.30;96.30;;;;;;5014432;28;20436;-76
2022/09/05 19:56:08;;;;;;;14.53;9.13;;;16.40;96.30;;;;;;4997095;28;20411;-77
2022/09/05 19:58:34;;;;;;;9.83;8.93;;;16.30;96.30;;;;;;5014392;28;20991;-79
2022/09/05 20:01:03;;;;;;;17.10;9.13;;;16.30;96.30;;;;;;4996908;28;20335;-76
2022/09/05 20:03:32;;;;;;;10.20;9.20;;;16.40;96.30;;;;;;5014418;28;20538;-77
2022/09/05 20:05:58;;;;;;;11.07;9.57;;;16.40;96.30;;;;;;5014391;28;20971;-76
2022/09/05 20:08:32;;;;;;;11.10;10.10;;;16.40;96.30;;;;;;5014192;28;21145;-76
2022/09/05 20:11:03;;;;;;;8.60;7.87;;;16.30;96.30;;;;;;5014202;28;20510;-75
2022/09/05 20:13:29;;;;;;;9.43;8.60;;;16.30;96.30;;;;;;5014324;28;20502;-76
2022/09/05 20:15:55;;;;;;;10.10;8.40;;;16.40;96.30;;;;;;5014131;28;20947;-76
2022/09/05 20:18:34;;;;;;;9.90;8.27;;;16.40;96.30;;;;;;4996931;28;20503;-79